sensor_id;sensor_type;location;lat;lon;timestamp;P1;durP1;ratioP1;P2;durP2;ratioP2
44270;SDS011;29963;44.594;11.368;2024-02-04T00:01:41;91.95;;;58.67;;
44270;SDS011;29963;44.594;11.368;2024-02-04T00:04:07;91.93;;;62.63;;
44270;SDS011;29963;44.594;11.368;2024-02-04T00:06:33;90.07;;;60.58;;
44270;SDS011;29963;44.594;11.368;2024-02-04T00:08:58;82.30;;;59.55;;
44270;SDS011;29963;44.594;11.368;2024-02-04T00:11:24;87.65;;;62.25;;
44270;SDS011;29963;44.594;11.368;2024-02-04T00:13:50;92.95;;;62.00;;
44270;SDS011;29963;44.594;11.368;2024-02-04T00:16:16;97.35;;;66.50;;
44270;SDS011;29963;44.594;11.368;2024-02-04T00:18:44;106.57;;;66.75;;
44270;SDS011;29963;44.594;11.368;2024-02-04T00:21:10;102.25;;;67.65;;
44270;SDS011;29963;44.594;11.368;2024-02-04T00:23:35;101.97;;;67.75;;
44270;SDS011;29963;44.594;11.368;2024-02-04T00:26:01;94.38;;;67.07;;
44270;SDS011;29963;44.594;11.368;2024-02-04T00:28:27;99.60;;;69.63;;
44270;SDS011;29963;44.594;11.368;2024-02-04T00:30:53;95.55;;;66.93;;
44270;SDS011;29963;44.594;11.368;2024-02-04T00:33:21;103.00;;;69.57;;
44270;SDS011;29963;44.594;11.368;2024-02-04T00:35:47;105.20;;;69.05;;
44270;SDS011;29963;44.594;11.368;2024-02-04T00:38:13;103.43;;;69.03;;
44270;SDS011;29963;44.594;11.368;2024-02-04T00:40:38;99.45;;;67.80;;
44270;SDS011;29963;44.594;11.368;2024-02-04T00:43:04;109.50;;;66.78;;
44270;SDS011;29963;44.594;11.368;2024-02-04T00:45:29;99.72;;;68.35;;
44270;SDS011;29963;44.594;11.368;2024-02-04T00:47:55;109.15;;;70.35;;
44270;SDS011;29963;44.594;11.368;2024-02-04T00:50:21;100.90;;;69.05;;
44270;SDS011;29963;44.594;11.368;2024-02-04T00:52:46;98.13;;;69.25;;
44270;SDS011;29963;44.594;11.368;2024-02-04T00:55:12;101.70;;;69.15;;
44270;SDS011;29963;44.594;11.368;2024-02-04T00:57:37;112.18;;;72.05;;
44270;SDS011;29963;44.594;11.368;2024-02-04T01:00:03;103.68;;;68.60;;
44270;SDS011;29963;44.594;11.368;2024-02-04T01:02:29;105.97;;;73.45;;
44270;SDS011;29963;44.594;11.368;2024-02-04T01:04:58;109.78;;;73.75;;
44270;SDS011;29963;44.594;11.368;2024-02-04T01:07:23;105.15;;;73.63;;
44270;SDS011;29963;44.594;11.368;2024-02-04T01:09:49;107.07;;;75.55;;
44270;SDS011;29963;44.594;11.368;2024-02-04T01:12:15;107.20;;;73.28;;
44270;SDS011;29963;44.594;11.368;2024-02-04T01:14:40;103.93;;;73.55;;
44270;SDS011;29963;44.594;11.368;2024-02-04T01:17:06;104.90;;;71.68;;
44270;SDS011;29963;44.594;11.368;2024-02-04T01:19:32;107.88;;;75.50;;
44270;SDS011;29963;44.594;11.368;2024-02-04T01:21:58;109.43;;;75.57;;
44270;SDS011;29963;44.594;11.368;2024-02-04T01:24:23;117.57;;;79.15;;
44270;SDS011;29963;44.594;11.368;2024-02-04T01:26:50;113.97;;;80.82;;
44270;SDS011;29963;44.594;11.368;2024-02-04T01:29:15;127.75;;;83.72;;
44270;SDS011;29963;44.594;11.368;2024-02-04T01:31:44;121.88;;;80.35;;
44270;SDS011;29963;44.594;11.368;2024-02-04T01:34:09;130.07;;;83.70;;
44270;SDS011;29963;44.594;11.368;2024-02-04T01:36:35;111.25;;;80.07;;
44270;SDS011;29963;44.594;11.368;2024-02-04T01:39:01;119.20;;;82.05;;
44270;SDS011;29963;44.594;11.368;2024-02-04T01:41:27;124.35;;;83.97;;
44270;SDS011;29963;44.594;11.368;2024-02-04T01:43:53;118.03;;;80.40;;
44270;SDS011;29963;44.594;11.368;2024-02-04T01:46:20;121.38;;;81.15;;
44270;SDS011;29963;44.594;11.368;2024-02-04T01:48:45;121.18;;;81.93;;
44270;SDS011;29963;44.594;11.368;2024-02-04T01:51:11;127.43;;;84.43;;
44270;SDS011;29963;44.594;11.368;2024-02-04T01:53:39;121.05;;;82.88;;
44270;SDS011;29963;44.594;11.368;2024-02-04T01:56:07;118.47;;;80.60;;
44270;SDS011;29963;44.594;11.368;2024-02-04T01:58:33;117.50;;;76.85;;
44270;SDS011;29963;44.594;11.368;2024-02-04T02:00:59;111.25;;;73.63;;
44270;SDS011;29963;44.594;11.368;2024-02-04T02:03:25;113.88;;;73.72;;
44270;SDS011;29963;44.594;11.368;2024-02-04T02:05:52;95.32;;;68.72;;
44270;SDS011;29963;44.594;11.368;2024-02-04T02:08:17;107.38;;;72.97;;
44270;SDS011;29963;44.594;11.368;2024-02-04T02:10:43;103.50;;;69.10;;
44270;SDS011;29963;44.594;11.368;2024-02-04T02:16:13;104.20;;;68.93;;
44270;SDS011;29963;44.594;11.368;2024-02-04T02:18:46;97.75;;;67.72;;
44270;SDS011;29963;44.594;11.368;2024-02-04T02:24:02;102.22;;;71.30;;
44270;SDS011;29963;44.594;11.368;2024-02-04T02:26:46;96.10;;;64.97;;
44270;SDS011;29963;44.594;11.368;2024-02-04T02:29:13;103.50;;;65.45;;
44270;SDS011;29963;44.594;11.368;2024-02-04T02:31:38;101.18;;;66.05;;
44270;SDS011;29963;44.594;11.368;2024-02-04T02:34:07;95.20;;;64.93;;
44270;SDS011;29963;44.594;11.368;2024-02-04T02:36:37;97.70;;;66.28;;
44270;SDS011;29963;44.594;11.368;2024-02-04T02:39:17;100.90;;;65.28;;
44270;SDS011;29963;44.594;11.368;2024-02-04T02:41:49;103.78;;;65.70;;
44270;SDS011;29963;44.594;11.368;2024-02-04T02:44:16;100.97;;;65.13;;
44270;SDS011;29963;44.594;11.368;2024-02-04T02:46:43;99.00;;;67.03;;
44270;SDS011;29963;44.594;11.368;2024-02-04T02:49:10;97.35;;;69.22;;
44270;SDS011;29963;44.594;11.368;2024-02-04T02:51:36;106.55;;;67.25;;
44270;SDS011;29963;44.594;11.368;2024-02-04T02:54:02;102.60;;;65.47;;
44270;SDS011;29963;44.594;11.368;2024-02-04T02:56:27;95.88;;;67.28;;
44270;SDS011;29963;44.594;11.368;2024-02-04T02:58:53;95.97;;;65.45;;
44270;SDS011;29963;44.594;11.368;2024-02-04T03:01:18;108.97;;;68.65;;
44270;SDS011;29963;44.594;11.368;2024-02-04T03:03:44;103.75;;;70.72;;
44270;SDS011;29963;44.594;11.368;2024-02-04T03:06:09;103.50;;;66.85;;
44270;SDS011;29963;44.594;11.368;2024-02-04T03:08:35;98.55;;;68.97;;
44270;SDS011;29963;44.594;11.368;2024-02-04T03:11:01;96.25;;;66.03;;
44270;SDS011;29963;44.594;11.368;2024-02-04T03:13:26;116.38;;;73.22;;
44270;SDS011;29963;44.594;11.368;2024-02-04T03:15:52;111.95;;;71.15;;
44270;SDS011;29963;44.594;11.368;2024-02-04T03:18:17;103.00;;;69.80;;
44270;SDS011;29963;44.594;11.368;2024-02-04T03:20:43;102.85;;;68.10;;
44270;SDS011;29963;44.594;11.368;2024-02-04T03:23:08;101.38;;;67.22;;
44270;SDS011;29963;44.594;11.368;2024-02-04T03:25:34;100.47;;;67.07;;
44270;SDS011;29963;44.594;11.368;2024-02-04T03:28:03;98.32;;;63.25;;
44270;SDS011;29963;44.594;11.368;2024-02-04T03:30:29;89.45;;;59.97;;
44270;SDS011;29963;44.594;11.368;2024-02-04T03:32:55;86.30;;;55.42;;
44270;SDS011;29963;44.594;11.368;2024-02-04T03:35:20;93.80;;;62.80;;
44270;SDS011;29963;44.594;11.368;2024-02-04T03:37:46;98.10;;;64.60;;
44270;SDS011;29963;44.594;11.368;2024-02-04T03:40:15;98.53;;;67.60;;
44270;SDS011;29963;44.594;11.368;2024-02-04T03:42:40;95.75;;;59.63;;
44270;SDS011;29963;44.594;11.368;2024-02-04T03:45:06;105.30;;;65.18;;
44270;SDS011;29963;44.594;11.368;2024-02-04T03:47:32;89.95;;;62.28;;
44270;SDS011;29963;44.594;11.368;2024-02-04T03:49:57;93.97;;;63.70;;
44270;SDS011;29963;44.594;11.368;2024-02-04T03:52:23;100.25;;;66.43;;
44270;SDS011;29963;44.594;11.368;2024-02-04T03:54:49;98.15;;;63.08;;
44270;SDS011;29963;44.594;11.368;2024-02-04T03:57:14;96.18;;;59.42;;
44270;SDS011;29963;44.594;11.368;2024-02-04T03:59:40;90.20;;;58.95;;
44270;SDS011;29963;44.594;11.368;2024-02-04T04:02:09;90.13;;;59.92;;
44270;SDS011;29963;44.594;11.368;2024-02-04T04:04:35;90.03;;;59.28;;
44270;SDS011;29963;44.594;11.368;2024-02-04T04:07:00;88.72;;;57.92;;
44270;SDS011;29963;44.594;11.368;2024-02-04T04:09:26;87.35;;;54.50;;
44270;SDS011;29963;44.594;11.368;2024-02-04T04:11:51;78.68;;;48.45;;
44270;SDS011;29963;44.594;11.368;2024-02-04T04:14:17;72.93;;;51.40;;
44270;SDS011;29963;44.594;11.368;2024-02-04T04:16:43;77.38;;;51.05;;
44270;SDS011;29963;44.594;11.368;2024-02-04T04:19:08;79.97;;;53.92;;
44270;SDS011;29963;44.594;11.368;2024-02-04T04:21:34;76.78;;;49.85;;
44270;SDS011;29963;44.594;11.368;2024-02-04T04:24:01;74.63;;;50.63;;
44270;SDS011;29963;44.594;11.368;2024-02-04T04:26:26;78.47;;;48.55;;
44270;SDS011;29963;44.594;11.368;2024-02-04T04:28:52;74.95;;;45.85;;
44270;SDS011;29963;44.594;11.368;2024-02-04T04:31:17;70.43;;;44.92;;
44270;SDS011;29963;44.594;11.368;2024-02-04T04:33:43;61.30;;;42.25;;
44270;SDS011;29963;44.594;11.368;2024-02-04T04:36:08;66.18;;;42.78;;
44270;SDS011;29963;44.594;11.368;2024-02-04T04:38:34;66.32;;;41.13;;
44270;SDS011;29963;44.594;11.368;2024-02-04T04:41:00;65.05;;;39.33;;
44270;SDS011;29963;44.594;11.368;2024-02-04T04:43:28;55.70;;;37.58;;
44270;SDS011;29963;44.594;11.368;2024-02-04T04:45:54;47.88;;;32.63;;
44270;SDS011;29963;44.594;11.368;2024-02-04T04:48:20;48.05;;;30.20;;
44270;SDS011;29963;44.594;11.368;2024-02-04T04:50:45;45.47;;;27.63;;
44270;SDS011;29963;44.594;11.368;2024-02-04T04:53:11;38.38;;;26.52;;
44270;SDS011;29963;44.594;11.368;2024-02-04T04:55:37;38.53;;;26.05;;
44270;SDS011;29963;44.594;11.368;2024-02-04T04:58:02;39.78;;;25.70;;
44270;SDS011;29963;44.594;11.368;2024-02-04T05:00:28;36.05;;;24.65;;
44270;SDS011;29963;44.594;11.368;2024-02-04T05:02:53;37.22;;;26.73;;
44270;SDS011;29963;44.594;11.368;2024-02-04T05:05:19;38.58;;;24.10;;
44270;SDS011;29963;44.594;11.368;2024-02-04T05:07:45;38.38;;;25.50;;
44270;SDS011;29963;44.594;11.368;2024-02-04T05:10:12;34.28;;;23.90;;
44270;SDS011;29963;44.594;11.368;2024-02-04T05:12:37;35.83;;;24.02;;
44270;SDS011;29963;44.594;11.368;2024-02-04T05:15:04;36.70;;;24.92;;
44270;SDS011;29963;44.594;11.368;2024-02-04T05:17:30;35.25;;;23.50;;
44270;SDS011;29963;44.594;11.368;2024-02-04T05:19:56;35.13;;;24.73;;
44270;SDS011;29963;44.594;11.368;2024-02-04T05:22:22;33.85;;;25.20;;
44270;SDS011;29963;44.594;11.368;2024-02-04T05:24:48;42.28;;;27.27;;
44270;SDS011;29963;44.594;11.368;2024-02-04T05:27:13;38.33;;;27.05;;
44270;SDS011;29963;44.594;11.368;2024-02-04T05:29:39;38.10;;;27.25;;
44270;SDS011;29963;44.594;11.368;2024-02-04T05:32:04;36.05;;;27.90;;
44270;SDS011;29963;44.594;11.368;2024-02-04T05:34:30;46.15;;;29.27;;
44270;SDS011;29963;44.594;11.368;2024-02-04T05:36:57;41.22;;;27.50;;
44270;SDS011;29963;44.594;11.368;2024-02-04T05:39:22;41.45;;;28.85;;
44270;SDS011;29963;44.594;11.368;2024-02-04T05:41:52;38.83;;;27.80;;
44270;SDS011;29963;44.594;11.368;2024-02-04T05:44:17;42.25;;;29.10;;
44270;SDS011;29963;44.594;11.368;2024-02-04T05:46:43;44.67;;;30.17;;
44270;SDS011;29963;44.594;11.368;2024-02-04T05:49:08;40.20;;;29.15;;
44270;SDS011;29963;44.594;11.368;2024-02-04T05:51:37;42.15;;;31.58;;
44270;SDS011;29963;44.594;11.368;2024-02-04T05:54:04;47.65;;;29.00;;
44270;SDS011;29963;44.594;11.368;2024-02-04T05:56:30;51.25;;;28.83;;
44270;SDS011;29963;44.594;11.368;2024-02-04T05:58:55;48.30;;;29.60;;
44270;SDS011;29963;44.594;11.368;2024-02-04T06:01:21;46.65;;;30.00;;
44270;SDS011;29963;44.594;11.368;2024-02-04T06:03:46;45.42;;;29.88;;
44270;SDS011;29963;44.594;11.368;2024-02-04T06:06:16;49.65;;;30.70;;
44270;SDS011;29963;44.594;11.368;2024-02-04T06:08:44;41.17;;;29.05;;
44270;SDS011;29963;44.594;11.368;2024-02-04T06:11:11;43.15;;;29.45;;
44270;SDS011;29963;44.594;11.368;2024-02-04T06:13:41;45.80;;;30.60;;
44270;SDS011;29963;44.594;11.368;2024-02-04T06:16:08;45.60;;;29.42;;
44270;SDS011;29963;44.594;11.368;2024-02-04T06:18:35;45.30;;;29.80;;
44270;SDS011;29963;44.594;11.368;2024-02-04T06:21:06;50.33;;;30.75;;
44270;SDS011;29963;44.594;11.368;2024-02-04T06:23:32;47.30;;;30.55;;
44270;SDS011;29963;44.594;11.368;2024-02-04T06:25:58;48.97;;;31.73;;
44270;SDS011;29963;44.594;11.368;2024-02-04T06:28:25;42.58;;;30.42;;
44270;SDS011;29963;44.594;11.368;2024-02-04T06:30:50;46.45;;;31.48;;
44270;SDS011;29963;44.594;11.368;2024-02-04T06:33:16;50.15;;;32.47;;
44270;SDS011;29963;44.594;11.368;2024-02-04T06:35:42;48.33;;;33.55;;
44270;SDS011;29963;44.594;11.368;2024-02-04T06:38:08;44.90;;;31.65;;
44270;SDS011;29963;44.594;11.368;2024-02-04T06:40:33;47.65;;;31.13;;
44270;SDS011;29963;44.594;11.368;2024-02-04T06:42:59;42.65;;;29.45;;
44270;SDS011;29963;44.594;11.368;2024-02-04T06:45:25;42.70;;;30.27;;
44270;SDS011;29963;44.594;11.368;2024-02-04T06:47:50;49.88;;;32.03;;
44270;SDS011;29963;44.594;11.368;2024-02-04T06:50:16;45.15;;;30.75;;
44270;SDS011;29963;44.594;11.368;2024-02-04T06:52:42;47.47;;;32.15;;
44270;SDS011;29963;44.594;11.368;2024-02-04T06:55:08;51.03;;;31.35;;
44270;SDS011;29963;44.594;11.368;2024-02-04T06:57:34;45.72;;;31.45;;
44270;SDS011;29963;44.594;11.368;2024-02-04T07:00:00;45.13;;;30.58;;
44270;SDS011;29963;44.594;11.368;2024-02-04T07:02:26;40.47;;;30.30;;
44270;SDS011;29963;44.594;11.368;2024-02-04T07:04:52;45.70;;;31.15;;
44270;SDS011;29963;44.594;11.368;2024-02-04T07:07:17;47.53;;;31.27;;
44270;SDS011;29963;44.594;11.368;2024-02-04T07:09:43;43.05;;;31.20;;
44270;SDS011;29963;44.594;11.368;2024-02-04T07:12:09;51.67;;;32.20;;
44270;SDS011;29963;44.594;11.368;2024-02-04T07:14:34;48.33;;;32.67;;
44270;SDS011;29963;44.594;11.368;2024-02-04T07:17:00;44.92;;;30.75;;
44270;SDS011;29963;44.594;11.368;2024-02-04T07:19:28;45.70;;;31.65;;
44270;SDS011;29963;44.594;11.368;2024-02-04T07:21:55;49.92;;;32.92;;
44270;SDS011;29963;44.594;11.368;2024-02-04T07:24:21;49.00;;;33.10;;
44270;SDS011;29963;44.594;11.368;2024-02-04T07:26:46;54.33;;;34.90;;
44270;SDS011;29963;44.594;11.368;2024-02-04T07:29:12;48.65;;;34.58;;
44270;SDS011;29963;44.594;11.368;2024-02-04T07:31:38;52.47;;;34.65;;
44270;SDS011;29963;44.594;11.368;2024-02-04T07:34:04;53.50;;;36.35;;
44270;SDS011;29963;44.594;11.368;2024-02-04T07:36:30;52.20;;;33.08;;
44270;SDS011;29963;44.594;11.368;2024-02-04T07:38:56;52.58;;;33.65;;
44270;SDS011;29963;44.594;11.368;2024-02-04T07:41:22;52.28;;;35.30;;
44270;SDS011;29963;44.594;11.368;2024-02-04T07:43:47;52.25;;;36.92;;
44270;SDS011;29963;44.594;11.368;2024-02-04T07:46:14;51.42;;;36.25;;
44270;SDS011;29963;44.594;11.368;2024-02-04T07:48:40;55.25;;;37.65;;
44270;SDS011;29963;44.594;11.368;2024-02-04T07:51:06;58.25;;;36.38;;
44270;SDS011;29963;44.594;11.368;2024-02-04T07:53:33;59.97;;;36.25;;
44270;SDS011;29963;44.594;11.368;2024-02-04T07:55:59;51.45;;;37.63;;
44270;SDS011;29963;44.594;11.368;2024-02-04T07:58:24;50.75;;;36.17;;
44270;SDS011;29963;44.594;11.368;2024-02-04T08:00:52;61.53;;;40.47;;
44270;SDS011;29963;44.594;11.368;2024-02-04T08:03:17;59.38;;;37.55;;
44270;SDS011;29963;44.594;11.368;2024-02-04T08:05:43;55.00;;;39.10;;
44270;SDS011;29963;44.594;11.368;2024-02-04T08:08:08;54.67;;;36.35;;
44270;SDS011;29963;44.594;11.368;2024-02-04T08:10:34;57.67;;;40.17;;
44270;SDS011;29963;44.594;11.368;2024-02-04T08:12:59;59.67;;;40.00;;
44270;SDS011;29963;44.594;11.368;2024-02-04T08:15:25;62.58;;;39.28;;
44270;SDS011;29963;44.594;11.368;2024-02-04T08:17:51;59.13;;;40.10;;
44270;SDS011;29963;44.594;11.368;2024-02-04T08:20:17;55.75;;;37.85;;
44270;SDS011;29963;44.594;11.368;2024-02-04T08:22:43;55.10;;;38.38;;
44270;SDS011;29963;44.594;11.368;2024-02-04T08:25:08;58.83;;;38.10;;
44270;SDS011;29963;44.594;11.368;2024-02-04T08:27:36;51.55;;;35.33;;
44270;SDS011;29963;44.594;11.368;2024-02-04T08:30:02;48.58;;;34.13;;
44270;SDS011;29963;44.594;11.368;2024-02-04T08:32:28;45.55;;;34.83;;
44270;SDS011;29963;44.594;11.368;2024-02-04T08:34:54;51.15;;;32.47;;
44270;SDS011;29963;44.594;11.368;2024-02-04T08:37:20;47.90;;;31.42;;
44270;SDS011;29963;44.594;11.368;2024-02-04T08:39:45;43.53;;;30.08;;
44270;SDS011;29963;44.594;11.368;2024-02-04T08:42:11;44.00;;;28.88;;
44270;SDS011;29963;44.594;11.368;2024-02-04T08:44:36;40.30;;;28.83;;
44270;SDS011;29963;44.594;11.368;2024-02-04T08:47:02;41.05;;;29.73;;
44270;SDS011;29963;44.594;11.368;2024-02-04T08:49:29;41.60;;;27.83;;
44270;SDS011;29963;44.594;11.368;2024-02-04T08:51:54;40.15;;;26.92;;
44270;SDS011;29963;44.594;11.368;2024-02-04T08:54:20;33.38;;;24.02;;
44270;SDS011;29963;44.594;11.368;2024-02-04T08:56:46;31.92;;;21.85;;
44270;SDS011;29963;44.594;11.368;2024-02-04T08:59:11;29.67;;;21.17;;
44270;SDS011;29963;44.594;11.368;2024-02-04T09:01:37;28.83;;;21.63;;
44270;SDS011;29963;44.594;11.368;2024-02-04T09:04:03;30.98;;;22.30;;
44270;SDS011;29963;44.594;11.368;2024-02-04T09:06:28;31.95;;;21.80;;
44270;SDS011;29963;44.594;11.368;2024-02-04T09:08:54;27.92;;;20.67;;
44270;SDS011;29963;44.594;11.368;2024-02-04T09:11:20;27.92;;;20.13;;
44270;SDS011;29963;44.594;11.368;2024-02-04T09:13:46;25.48;;;19.73;;
44270;SDS011;29963;44.594;11.368;2024-02-04T09:16:11;25.75;;;19.58;;
44270;SDS011;29963;44.594;11.368;2024-02-04T09:18:37;26.55;;;20.65;;
44270;SDS011;29963;44.594;11.368;2024-02-04T09:21:03;32.10;;;21.08;;
44270;SDS011;29963;44.594;11.368;2024-02-04T09:23:29;28.35;;;20.48;;
44270;SDS011;29963;44.594;11.368;2024-02-04T09:25:55;29.83;;;23.13;;
44270;SDS011;29963;44.594;11.368;2024-02-04T09:28:20;26.38;;;20.60;;
44270;SDS011;29963;44.594;11.368;2024-02-04T09:30:46;32.05;;;21.45;;
44270;SDS011;29963;44.594;11.368;2024-02-04T09:33:12;27.75;;;22.45;;
44270;SDS011;29963;44.594;11.368;2024-02-04T09:35:39;26.70;;;21.83;;
44270;SDS011;29963;44.594;11.368;2024-02-04T09:38:04;30.35;;;21.98;;
44270;SDS011;29963;44.594;11.368;2024-02-04T09:40:30;31.70;;;23.80;;
44270;SDS011;29963;44.594;11.368;2024-02-04T09:42:57;34.90;;;22.70;;
44270;SDS011;29963;44.594;11.368;2024-02-04T09:45:24;33.38;;;23.42;;
44270;SDS011;29963;44.594;11.368;2024-02-04T09:47:51;31.30;;;23.00;;
44270;SDS011;29963;44.594;11.368;2024-02-04T09:50:20;31.42;;;23.65;;
44270;SDS011;29963;44.594;11.368;2024-02-04T09:52:48;28.75;;;21.20;;
44270;SDS011;29963;44.594;11.368;2024-02-04T09:55:17;31.42;;;24.35;;
44270;SDS011;29963;44.594;11.368;2024-02-04T09:57:46;31.80;;;24.75;;
44270;SDS011;29963;44.594;11.368;2024-02-04T10:00:12;30.02;;;23.90;;
44270;SDS011;29963;44.594;11.368;2024-02-04T10:02:38;31.20;;;25.13;;
44270;SDS011;29963;44.594;11.368;2024-02-04T10:05:06;34.08;;;25.85;;
44270;SDS011;29963;44.594;11.368;2024-02-04T10:07:34;35.42;;;25.67;;
44270;SDS011;29963;44.594;11.368;2024-02-04T10:10:00;32.97;;;25.70;;
44270;SDS011;29963;44.594;11.368;2024-02-04T10:12:26;35.47;;;26.55;;
44270;SDS011;29963;44.594;11.368;2024-02-04T10:14:51;32.03;;;25.42;;
44270;SDS011;29963;44.594;11.368;2024-02-04T10:17:17;39.50;;;26.35;;
44270;SDS011;29963;44.594;11.368;2024-02-04T10:19:46;37.13;;;26.15;;
44270;SDS011;29963;44.594;11.368;2024-02-04T10:22:13;33.92;;;27.33;;
44270;SDS011;29963;44.594;11.368;2024-02-04T10:24:39;34.97;;;26.90;;
44270;SDS011;29963;44.594;11.368;2024-02-04T10:27:04;39.15;;;28.45;;
44270;SDS011;29963;44.594;11.368;2024-02-04T10:29:30;37.42;;;29.95;;
44270;SDS011;29963;44.594;11.368;2024-02-04T10:31:56;41.05;;;29.40;;
44270;SDS011;29963;44.594;11.368;2024-02-04T10:34:26;42.50;;;29.73;;
44270;SDS011;29963;44.594;11.368;2024-02-04T10:36:52;37.45;;;29.05;;
44270;SDS011;29963;44.594;11.368;2024-02-04T10:39:17;39.00;;;29.90;;
44270;SDS011;29963;44.594;11.368;2024-02-04T10:41:47;43.22;;;30.50;;
44270;SDS011;29963;44.594;11.368;2024-02-04T10:44:16;37.95;;;30.02;;
44270;SDS011;29963;44.594;11.368;2024-02-04T10:46:42;44.42;;;33.42;;
44270;SDS011;29963;44.594;11.368;2024-02-04T10:49:13;42.92;;;30.40;;
44270;SDS011;29963;44.594;11.368;2024-02-04T10:51:39;40.00;;;31.23;;
44270;SDS011;29963;44.594;11.368;2024-02-04T10:54:07;44.47;;;33.97;;
44270;SDS011;29963;44.594;11.368;2024-02-04T10:56:37;47.47;;;35.95;;
44270;SDS011;29963;44.594;11.368;2024-02-04T10:59:13;46.80;;;35.15;;
44270;SDS011;29963;44.594;11.368;2024-02-04T11:01:42;41.00;;;34.42;;
44270;SDS011;29963;44.594;11.368;2024-02-04T11:04:10;46.50;;;34.75;;
44270;SDS011;29963;44.594;11.368;2024-02-04T11:06:38;52.05;;;40.08;;
44270;SDS011;29963;44.594;11.368;2024-02-04T11:11:51;53.25;;;39.33;;
44270;SDS011;29963;44.594;11.368;2024-02-04T11:14:20;57.28;;;39.25;;
44270;SDS011;29963;44.594;11.368;2024-02-04T11:17:13;52.72;;;40.55;;
44270;SDS011;29963;44.594;11.368;2024-02-04T11:25:52;50.97;;;36.63;;
44270;SDS011;29963;44.594;11.368;2024-02-04T11:28:20;50.58;;;36.50;;
44270;SDS011;29963;44.594;11.368;2024-02-04T11:30:47;43.05;;;35.75;;
44270;SDS011;29963;44.594;11.368;2024-02-04T11:33:20;57.22;;;39.95;;
44270;SDS011;29963;44.594;11.368;2024-02-04T11:35:47;44.70;;;36.88;;
44270;SDS011;29963;44.594;11.368;2024-02-04T11:38:28;48.78;;;37.80;;
44270;SDS011;29963;44.594;11.368;2024-02-04T11:40:57;49.58;;;36.30;;
44270;SDS011;29963;44.594;11.368;2024-02-04T11:43:23;53.30;;;40.17;;
44270;SDS011;29963;44.594;11.368;2024-02-04T11:45:51;55.38;;;40.53;;
44270;SDS011;29963;44.594;11.368;2024-02-04T11:48:17;49.75;;;39.58;;
44270;SDS011;29963;44.594;11.368;2024-02-04T11:50:43;51.95;;;39.47;;
44270;SDS011;29963;44.594;11.368;2024-02-04T11:53:16;49.55;;;36.70;;
44270;SDS011;29963;44.594;11.368;2024-02-04T11:55:43;50.78;;;38.20;;
44270;SDS011;29963;44.594;11.368;2024-02-04T11:58:10;55.15;;;38.65;;
44270;SDS011;29963;44.594;11.368;2024-02-04T12:00:37;50.95;;;39.03;;
44270;SDS011;29963;44.594;11.368;2024-02-04T12:03:06;50.30;;;39.33;;
44270;SDS011;29963;44.594;11.368;2024-02-04T12:05:36;53.88;;;40.08;;
44270;SDS011;29963;44.594;11.368;2024-02-04T12:08:03;46.13;;;35.70;;
44270;SDS011;29963;44.594;11.368;2024-02-04T12:10:30;48.55;;;38.38;;
44270;SDS011;29963;44.594;11.368;2024-02-04T12:13:03;50.97;;;39.95;;
44270;SDS011;29963;44.594;11.368;2024-02-04T12:15:31;52.33;;;38.88;;
44270;SDS011;29963;44.594;11.368;2024-02-04T12:18:06;54.28;;;38.42;;
44270;SDS011;29963;44.594;11.368;2024-02-04T12:20:35;51.53;;;37.78;;
44270;SDS011;29963;44.594;11.368;2024-02-04T12:23:02;45.92;;;36.85;;
44270;SDS011;29963;44.594;11.368;2024-02-04T12:25:31;48.13;;;37.30;;
44270;SDS011;29963;44.594;11.368;2024-02-04T12:27:58;50.00;;;38.55;;
44270;SDS011;29963;44.594;11.368;2024-02-04T12:30:24;47.45;;;35.50;;
44270;SDS011;29963;44.594;11.368;2024-02-04T12:33:00;45.42;;;36.97;;
44270;SDS011;29963;44.594;11.368;2024-02-04T12:35:27;49.20;;;35.58;;
44270;SDS011;29963;44.594;11.368;2024-02-04T12:37:53;45.97;;;36.63;;
44270;SDS011;29963;44.594;11.368;2024-02-04T12:40:23;48.15;;;35.38;;
44270;SDS011;29963;44.594;11.368;2024-02-04T12:42:54;45.10;;;36.40;;
44270;SDS011;29963;44.594;11.368;2024-02-04T12:45:32;45.63;;;35.35;;
44270;SDS011;29963;44.594;11.368;2024-02-04T12:47:58;45.13;;;33.55;;
44270;SDS011;29963;44.594;11.368;2024-02-04T12:50:24;48.83;;;36.53;;
44270;SDS011;29963;44.594;11.368;2024-02-04T12:53:01;42.33;;;32.45;;
44270;SDS011;29963;44.594;11.368;2024-02-04T12:55:37;41.90;;;34.08;;
44270;SDS011;29963;44.594;11.368;2024-02-04T13:00:39;46.03;;;34.40;;
44270;SDS011;29963;44.594;11.368;2024-02-04T13:03:06;47.05;;;33.88;;
44270;SDS011;29963;44.594;11.368;2024-02-04T13:05:36;39.92;;;31.55;;
44270;SDS011;29963;44.594;11.368;2024-02-04T13:08:03;42.47;;;33.00;;
44270;SDS011;29963;44.594;11.368;2024-02-04T13:10:31;40.67;;;33.13;;
44270;SDS011;29963;44.594;11.368;2024-02-04T13:13:05;40.95;;;32.60;;
44270;SDS011;29963;44.594;11.368;2024-02-04T13:15:36;39.72;;;32.63;;
44270;SDS011;29963;44.594;11.368;2024-02-04T13:18:04;38.90;;;31.60;;
44270;SDS011;29963;44.594;11.368;2024-02-04T13:20:29;41.28;;;31.40;;
44270;SDS011;29963;44.594;11.368;2024-02-04T13:22:55;40.10;;;29.90;;
44270;SDS011;29963;44.594;11.368;2024-02-04T13:25:22;41.05;;;33.17;;
44270;SDS011;29963;44.594;11.368;2024-02-04T13:27:48;37.95;;;28.52;;
44270;SDS011;29963;44.594;11.368;2024-02-04T13:30:14;40.70;;;31.95;;
44270;SDS011;29963;44.594;11.368;2024-02-04T13:32:46;37.33;;;30.90;;
44270;SDS011;29963;44.594;11.368;2024-02-04T13:35:12;41.25;;;31.70;;
44270;SDS011;29963;44.594;11.368;2024-02-04T13:37:38;37.25;;;32.25;;
44270;SDS011;29963;44.594;11.368;2024-02-04T13:40:05;43.10;;;32.40;;
44270;SDS011;29963;44.594;11.368;2024-02-04T13:42:33;43.42;;;31.60;;
44270;SDS011;29963;44.594;11.368;2024-02-04T13:45:00;37.88;;;31.48;;
44270;SDS011;29963;44.594;11.368;2024-02-04T13:47:27;40.35;;;32.30;;
44270;SDS011;29963;44.594;11.368;2024-02-04T13:49:53;41.22;;;32.00;;
44270;SDS011;29963;44.594;11.368;2024-02-04T13:52:19;41.40;;;32.65;;
44270;SDS011;29963;44.594;11.368;2024-02-04T13:54:45;41.00;;;33.40;;
44270;SDS011;29963;44.594;11.368;2024-02-04T13:57:11;45.50;;;36.03;;
44270;SDS011;29963;44.594;11.368;2024-02-04T13:59:36;43.20;;;34.25;;
44270;SDS011;29963;44.594;11.368;2024-02-04T14:02:02;43.78;;;36.70;;
44270;SDS011;29963;44.594;11.368;2024-02-04T14:04:29;42.67;;;36.17;;
44270;SDS011;29963;44.594;11.368;2024-02-04T14:06:55;46.20;;;39.83;;
44270;SDS011;29963;44.594;11.368;2024-02-04T14:09:20;44.38;;;37.72;;
44270;SDS011;29963;44.594;11.368;2024-02-04T14:11:46;47.72;;;39.25;;
44270;SDS011;29963;44.594;11.368;2024-02-04T14:14:12;49.20;;;40.45;;
44270;SDS011;29963;44.594;11.368;2024-02-04T14:16:37;49.95;;;43.50;;
44270;SDS011;29963;44.594;11.368;2024-02-04T14:19:04;47.13;;;40.80;;
44270;SDS011;29963;44.594;11.368;2024-02-04T14:21:29;55.45;;;44.90;;